• pl
  • eng

Awiacja
WIADOMOŚCI
ostatnia aktualizacja: 17.04.2020 19:04
Szanowni Państwo,

mając na uwadze sytuację związaną z pandemią wywołaną koronawirusem SARS-Cov-2 oraz w trosce o bezpieczeństwo Państwa oraz naszych pracowników, IMGW-PIB podjął decyzję o przeniesieniu kolejnej edycji Szkoły Meteorologii Lotniczej na przyszły rok. W tej chwili podanie dokładnego terminu szkoły nie jest możliwe, ale jak tylko będzie znany zostanie ogłoszony na naszych stronach internetowych, do których śledzenia serdecznie zapraszamy.

Kliknij na pogrubioną czerwoną nazwę, aby odkodować depeszę. 20:01 29.05.2020
  • WIND
  • SIGNIFICANT EURO
  • SIGNIFICANT
  • SIGMET
  • AIRMET
  • TAF FC
  • TAF FT
  • METAR GG30
  • METAR GG00


METAR EPBY 291800Z 04014KT CAVOK 14/M00 Q1024=

METAR EPGD 291800Z 36013KT CAVOK 11/03 Q1026 =

METAR EPKK 291800Z 34009KT 9999 FEW067 15/02 Q1020 =

METAR EPKT 291800Z 35010KT CAVOK 13/01 Q1021 =

METAR EPLB 291800Z 35008KT CAVOK 15/05 Q1018 =

METAR EPLL 291800Z 33008KT 280V010 CAVOK 14/01 Q1022 =

METAR EPMO 291800Z 35007KT 320V020 CAVOK 15/03 Q1021 =

METAR EPPO 291800Z 05009KT CAVOK 15/01 Q1024 =

METAR EPRA 291800Z NIL=

METAR EPRZ 291800Z 33010KT CAVOK 15/05 Q1018 =

METAR EPSC 291800Z 01008KT 330V060 CAVOK 15/02 Q1026 =

METAR EPSY 291800Z NIL=

METAR EPWA 291800Z 36012KT CAVOK 17/02 Q1020 NOSIG=

METAR EPWR 291800Z 02007KT CAVOK 15/02 Q1023 =

METAR EPZG 291800Z 36003KT 330V030 CAVOK 16/04 Q1025 =
 METAR EPMO
Lokalizacja:EPMO Modlin
Czas:18:00 UTC
Średni kierunek wiatru:350 °
Średnia prędkość wiatru:7 węzłów
Kierunek wiatru zmienia się od:320 °
Kierunek wiatru zmienia się do:020 °
CAVOK:Widzialność 10 km i więcej, zjawisko: NIL, zachmurzenie: NSC
Temperatura powietrza:15 °C
Temperatura punktu rosy:3 °C
Ciśnienie QNH:1021 hPa
Awiacja.imgw.pl jest pogodowym serwisem informacyjnym
Instytutu Meteorologii i Gospodarki Wodnej Państwowego Instytutu Badawczego.
Copyright IMGW PIB 2009-2019© Wszelkie prawa zastrzeżone.